Terminal Aerodrome Forecast
Issued by NWS

Current Version | Previous Version | Text Only | Print | Product List | Glossary On
Versions: 1 2 3 4 5 6 7 8 9 10 11 12 13 14 15 16
000
FTUS42 TJSJ 050525
TAFJMZ
TAF
TJMZ 050525Z 0506/0606 VRB04KT P6SM FEW030
     FM051530 27010KT P6SM VCTS SCT025CB BKN040
     FM051730 28010KT P6SM VCTS BKN030CB
     FM052330 VRB05KT P6SM SCT030
      AMD NOT SKED=

USA.gov is the U.S. government's official web portal to all federal, state and local government web resources and services.